Abrolhos Island North Island, Australia
Current Conditions -  °F | °C
As of 2:00 AM on Sunday 26 Oct 2014 (Local Time) from YGEL Reporting Station
Broken Clouds Broken Clouds  
Wind Chill: 64°   Ceiling: 5200
Heat Index: 64°   Visibility: 6mi
Dew Point: 57°   Wind: 6mph
Humidity: 77%   Direction: 180°S
Pressure: 30.12"   Gusts: NA
Location:  28.3°S, 113.58°E
Report Text: YGEL 251800Z AUTO 18005KT 9999 // BKN052 18/14 Q1020
Loading
Personal Weather Stations






























Interactive Weather Map
Tropical Storm Tracking
New forecast layout! Learn more

10-Day Weather Forecast

Advertisements
Track Severe Weather on mobile